Overview Statistics Trail Chart Weather Telemetry Raw packets
 

This is the latest recevied telemetry packets stored in our database for station/object OE6ERD-10. If no packets are shown the sender has not sent any telemetry packets the latest 10 day(s).

Telemetry packets is used to share measurements like repeteater parameters, battery voltage, radiation readings (or any other measurements).

<< 1 2 3 4 >>
Time Press* Temp.in* Hum* QNH* Temp.out*
1788702395 968.6 hPa 25.5 C deg 55.3 % 1022.9 hPa 21.2 C deg
1788700573 968.7 hPa 25.8 C deg 58.8 % 1023 hPa 21.1 C deg
1788698772 969 hPa 25.3 C deg 57.2 % 1023.3 hPa 21 C deg
1788696970 969.2 hPa 24.8 C deg 63.7 % 1023.6 hPa 20.9 C deg
1788695134 969.3 hPa 24.4 C deg 66.8 % 1023.9 hPa 20.8 C deg
1788693319 969.6 hPa 23.3 C deg 68.6 % 1024.4 hPa 20.7 C deg
1788691499 969.7 hPa 23.7 C deg 75.9 % 1024.4 hPa 20.6 C deg
1788689698 969.8 hPa 23.5 C deg 75 % 1024.5 hPa 20.5 C deg
1788687866 970 hPa 22.5 C deg 86.2 % 1024.9 hPa 20.4 C deg
1788686055 970.5 hPa 21.4 C deg 91.5 % 1025.6 hPa 20.4 C deg
1788684236 970.5 hPa 21.4 C deg 88.2 % 1025.7 hPa 20.3 C deg
1788682451 970.6 hPa 20.8 C deg 100 % 1025.9 hPa 20.3 C deg
1788680634 970.5 hPa 20.9 C deg 100 % 1025.8 hPa 20.3 C deg
1788678802 970.4 hPa 20.8 C deg 100 % 1025.7 hPa 20.3 C deg
1788676989 970.1 hPa 20.6 C deg 100 % 1025.4 hPa 20.3 C deg
1788675200 970 hPa 19.8 C deg 100 % 1025.4 hPa 20.3 C deg
1788673346 969.8 hPa 19.4 C deg 100 % 1025.4 hPa 20.3 C deg
1788671553 969.6 hPa 16.9 C deg 100 % 1025.6 hPa 20.3 C deg
1788667902 969.1 hPa 15.6 C deg 100 % 1025.3 hPa 20.4 C deg
1788666092 968.7 hPa 16.2 C deg 100 % 1024.8 hPa 20.5 C deg
1788664271 968.7 hPa 16.6 C deg 100 % 1024.7 hPa 20.6 C deg
1788662456 968.7 hPa 16.5 C deg 100 % 1024.7 hPa 20.6 C deg
1788660662 968.7 hPa 16.2 C deg 100 % 1024.7 hPa 20.6 C deg
1788658839 968.3 hPa 15.9 C deg 100 % 1024.4 hPa 20.7 C deg
1788657010 968.2 hPa 16.8 C deg 100 % 1024.1 hPa 20.8 C deg
*Used Equation Coefficients:
Press: 0, 1, 0
Temp.in: 0, 1, 0
Hum: 0, 1, 0
QNH: 0, 1, 0
Temp.out: 0, 1, 0

  • The parameter names for the analog channels will be Value1, Value2, Value3 (up to Value5) if station has not sent a PARAM-packet that specifies the parameter names for each analog channel.
  • Each analog value is a decimal number between 000 and 255 (according to APRS specifications). The receiver use the telemetry equation coefficientsto to restore the original sensor values. If no EQNS-packet with equation coefficients is sent we will show the values as is (this corresponds to the equation coefficients a=0, b=1 and c=0).
    The sent equation coefficients is used in the equation: a * value2 + b * value + c.
  • The units for the analog values will not be shown if station has not sent a UNIT-packet specifying what unit's to use.
  • The parameter names for the digital bits will be Bit1, Bit2, Bit3 (up to Bit8) if station has not sent a PARAM-packet that specifies the parameter names for each digital bit.
  • All bit labels will be named "On" if station has not sent a UNIT-packet that specifies the label of each bit.
  • A bit is considered to be On when the bit is 1 if station has not sent a BITS-packet that specifies another "Bit sense" (a BITS-packet specify the state of the bits that match the BIT labels)